Time;durP1;ratioP1;P1;durP2;ratioP2;P2;SDS_P1;SDS_P2;PMS_P1;PMS_P2;Temp;Humidity;BMP_temperature;BMP_pressure;BME280_temperature;BME280_humidity;BME280_pressure;Samples;Min_cycle;Max_cycle;Signal;HPM_P1;HPM_P2
2023/01/02 09:34:49;;;;;;;0.00;0.00;;;;;;;;;;5142025;27;20304;-82
2023/01/02 09:37:15;;;;;;;0.00;0.00;;;;;;;;;;5129387;28;20050;-83
2023/01/02 09:39:41;;;;;;;0.00;0.00;;;;;;;;;;5129574;28;20126;-82
2023/01/02 09:42:12;;;;;;;0.10;0.10;;;;;;;;;;5129385;28;20075;-82
2023/01/02 09:44:43;;;;;;;0.00;0.00;;;;;;;;;;5129365;27;20084;-83
2023/01/02 09:47:09;;;;;;;0.00;0.00;;;;;;;;;;5130470;28;20035;-84
2023/01/02 09:49:44;;;;;;;0.00;0.00;;;;;;;;;;5129228;28;20104;-82
2023/01/02 09:52:32;;;;;;;0.00;0.00;;;;;;;;;;5128912;28;20035;-82
2023/01/02 09:54:58;;;;;;;0.00;0.00;;;;;;;;;;5112556;28;20453;-82
2023/01/02 09:57:27;;;;;;;0.00;0.00;;;;;;;;;;5129198;28;20435;-82
2023/01/02 09:59:59;;;;;;;0.00;0.00;;;;;;;;;;5130337;28;20043;-82
2023/01/02 10:02:45;;;;;;;0.00;0.00;;;;;;;;;;5130041;28;20486;-82
2023/01/02 10:05:26;;;;;;;0.00;0.00;;;;;;;;;;5129096;27;20046;-82
2023/01/02 10:08:07;;;;;;;0.00;0.00;;;;;;;;;;5128599;28;20051;-82
2023/01/02 10:10:39;;;;;;;0.00;0.00;;;;;;;;;;5130314;28;20055;-83
2023/01/02 10:13:21;;;;;;;0.00;0.00;;;;;;;;;;5128594;28;20509;-83
2023/01/02 10:15:48;;;;;;;0.00;0.00;;;;;;;;;;5111571;28;20118;-82
2023/01/02 10:18:26;;;;;;;0.00;0.00;;;;;;;;;;5128672;28;20062;-83
2023/01/02 10:20:55;;;;;;;0.00;0.00;;;;;;;;;;5130185;28;20388;-83
2023/01/02 10:23:24;;;;;;;0.00;0.00;;;;;;;;;;5128486;28;20042;-83
2023/01/02 10:25:52;;;;;;;0.00;0.00;;;;;;;;;;5128877;27;20478;-83
2023/01/02 10:28:18;;;;;;;0.00;0.00;;;;;;;;;;5128930;28;20071;-82
2023/01/02 10:30:47;;;;;;;0.00;0.00;;;;;;;;;;5111762;28;20524;-82
2023/01/02 10:33:16;;;;;;;0.00;0.00;;;;;;;;;;5128222;28;20051;-82
2023/01/02 10:35:43;;;;;;;0.00;0.00;;;;;;;;;;5130310;27;20039;-83
2023/01/02 10:38:14;;;;;;;0.00;0.00;;;;;;;;;;5128406;28;20051;-86
2023/01/02 10:40:45;;;;;;;0.00;0.00;;;;;;;;;;5111531;28;20486;-83
2023/01/02 10:43:11;;;;;;;0.00;0.00;;;;;;;;;;5111224;28;20050;-82
2023/01/02 10:45:37;;;;;;;0.00;0.00;;;;;;;;;;5115885;28;20490;-83
2023/01/02 10:48:04;;;;;;;0.00;0.00;;;;;;;;;;5114212;28;20043;-83
2023/01/02 10:50:31;;;;;;;0.00;0.00;;;;;;;;;;5115946;28;20039;-83
2023/01/02 10:53:05;;;;;;;0.00;0.00;;;;;;;;;;5097310;28;20142;-83
2023/01/02 10:55:32;;;;;;;0.00;0.00;;;;;;;;;;5115487;28;20489;-83
2023/01/02 10:58:06;;;;;;;0.00;0.00;;;;;;;;;;5114044;28;20076;-83
2023/01/02 11:00:34;;;;;;;0.00;0.00;;;;;;;;;;5115504;28;20123;-83
2023/01/02 11:03:06;;;;;;;0.00;0.00;;;;;;;;;;5113853;28;20122;-82
2023/01/02 11:05:32;;;;;;;0.10;0.10;;;;;;;;;;5114115;28;20047;-83
2023/01/02 11:07:59;;;;;;;0.00;0.00;;;;;;;;;;5113960;28;20071;-82
2023/01/02 11:10:27;;;;;;;0.00;0.00;;;;;;;;;;5114035;28;20043;-82
2023/01/02 11:12:53;;;;;;;0.00;0.00;;;;;;;;;;5113685;28;20101;-83
2023/01/02 11:15:23;;;;;;;0.00;0.00;;;;;;;;;;5113853;28;20091;-82
2023/01/02 11:17:49;;;;;;;0.00;0.00;;;;;;;;;;5114232;28;20061;-81
2023/01/02 11:20:26;;;;;;;0.00;0.00;;;;;;;;;;5114156;28;20058;-83
2023/01/02 11:22:54;;;;;;;0.00;0.00;;;;;;;;;;5113636;28;20043;-82
2023/01/02 11:25:21;;;;;;;0.00;0.00;;;;;;;;;;5113679;28;20059;-82
2023/01/02 11:27:48;;;;;;;0.00;0.00;;;;;;;;;;5113589;28;20507;-82
2023/01/02 11:30:34;;;;;;;0.00;0.00;;;;;;;;;;5115254;28;20124;-82
2023/01/02 11:33:16;;;;;;;0.00;0.00;;;;;;;;;;5113291;28;20075;-83
2023/01/02 11:35:45;;;;;;;0.00;0.00;;;;;;;;;;5096671;28;20047;-83
2023/01/02 11:38:12;;;;;;;0.00;0.00;;;;;;;;;;5113359;28;20035;-83
2023/01/02 11:40:50;;;;;;;0.00;0.00;;;;;;;;;;5114977;28;20027;-82
2023/01/02 11:46:05;;;;;;;0.00;0.00;;;;;;;;;;5099338;28;20039;-82
2023/01/02 11:48:31;;;;;;;0.00;0.00;;;;;;;;;;5114845;27;20046;-83
2023/01/02 11:50:57;;;;;;;0.00;0.00;;;;;;;;;;5096748;28;20047;-82
2023/01/02 11:53:28;;;;;;;0.00;0.00;;;;;;;;;;5113375;28;20043;-83
2023/01/02 11:55:57;;;;;;;0.00;0.00;;;;;;;;;;5114089;28;20058;-83
2023/01/02 11:58:30;;;;;;;0.00;0.00;;;;;;;;;;5113377;28;20035;-82
2023/01/02 12:01:02;;;;;;;0.00;0.00;;;;;;;;;;5113170;28;20067;-82
2023/01/02 12:03:29;;;;;;;0.00;0.00;;;;;;;;;;5114454;28;20075;-82
2023/01/02 12:06:06;;;;;;;0.00;0.00;;;;;;;;;;5113226;28;20044;-82
2023/01/02 12:08:51;;;;;;;0.00;0.00;;;;;;;;;;5113354;28;20406;-83
2023/01/02 12:11:17;;;;;;;0.00;0.00;;;;;;;;;;5112943;28;20051;-82
2023/01/02 12:13:52;;;;;;;0.00;0.00;;;;;;;;;;5112524;28;20385;-82
2023/01/02 12:16:26;;;;;;;0.00;0.00;;;;;;;;;;5113152;28;20043;-82
2023/01/02 12:19:11;;;;;;;0.00;0.00;;;;;;;;;;5112717;28;20039;-82
2023/01/02 12:21:52;;;;;;;0.00;0.00;;;;;;;;;;5112627;28;20040;-82
2023/01/02 12:24:18;;;;;;;0.00;0.00;;;;;;;;;;5113691;28;20040;-82
2023/01/02 12:26:59;;;;;;;0.00;0.00;;;;;;;;;;5112703;28;20118;-82
2023/01/02 12:29:31;;;;;;;0.00;0.00;;;;;;;;;;5112287;28;20058;-82
2023/01/02 12:32:19;;;;;;;0.63;0.63;;;;;;;;;;5112570;28;20093;-82
2023/01/02 12:35:08;;;;;;;0.00;0.00;;;;;;;;;;5112093;27;20044;-82
2023/01/02 12:37:46;;;;;;;0.00;0.00;;;;;;;;;;5104256;28;20483;-83
2023/01/02 12:40:15;;;;;;;0.00;0.00;;;;;;;;;;5095420;28;20501;-85
2023/01/02 12:43:00;;;;;;;0.00;0.00;;;;;;;;;;5112114;28;20039;-82
2023/01/02 12:45:35;;;;;;;0.00;0.00;;;;;;;;;;5112165;28;20387;-82
2023/01/02 12:48:01;;;;;;;0.00;0.00;;;;;;;;;;5113457;28;20118;-82
2023/01/02 12:50:37;;;;;;;0.00;0.00;;;;;;;;;;5112000;28;20075;-83
2023/01/02 12:53:12;;;;;;;0.00;0.00;;;;;;;;;;5095032;28;20379;-82
2023/01/02 12:55:59;;;;;;;0.00;0.00;;;;;;;;;;5112363;28;20035;-82
2023/01/02 12:58:40;;;;;;;0.00;0.00;;;;;;;;;;5113237;28;20051;-82
2023/01/02 13:01:15;;;;;;;0.00;0.00;;;;;;;;;;5112321;28;20062;-82
2023/01/02 13:03:47;;;;;;;0.00;0.00;;;;;;;;;;5094673;28;20130;-82
2023/01/02 13:06:16;;;;;;;0.00;0.00;;;;;;;;;;5113200;28;20510;-82
2023/01/02 13:08:51;;;;;;;0.00;0.00;;;;;;;;;;5113192;28;20040;-83
2023/01/02 13:11:22;;;;;;;0.00;0.00;;;;;;;;;;5112185;28;20134;-82
2023/01/02 13:13:49;;;;;;;0.00;0.00;;;;;;;;;;5111947;28;20127;-82
2023/01/02 13:16:15;;;;;;;0.00;0.00;;;;;;;;;;5113156;28;20040;-82
2023/01/02 13:18:44;;;;;;;0.00;0.00;;;;;;;;;;5111601;28;20111;-83
2023/01/02 13:21:32;;;;;;;0.00;0.00;;;;;;;;;;5113476;28;20047;-82
2023/01/02 13:23:58;;;;;;;0.00;0.00;;;;;;;;;;5112768;28;20086;-82
2023/01/02 13:26:26;;;;;;;0.00;0.00;;;;;;;;;;5113339;28;20036;-82
2023/01/02 13:28:52;;;;;;;0.00;0.00;;;;;;;;;;5112762;28;20047;-82
2023/01/02 13:31:18;;;;;;;0.00;0.00;;;;;;;;;;5111354;28;20441;-82
2023/01/02 13:33:45;;;;;;;0.00;0.00;;;;;;;;;;5110901;28;20047;-82
2023/01/02 13:36:22;;;;;;;0.00;0.00;;;;;;;;;;5111638;28;20047;-82
2023/01/02 13:38:51;;;;;;;0.00;0.00;;;;;;;;;;5111573;28;20048;-82
2023/01/02 13:41:17;;;;;;;0.00;0.00;;;;;;;;;;5111195;28;20096;-82
2023/01/02 13:43:49;;;;;;;0.00;0.00;;;;;;;;;;5111550;28;20441;-83
2023/01/02 13:46:20;;;;;;;0.00;0.00;;;;;;;;;;5111452;28;20490;-82
2023/01/02 13:48:46;;;;;;;0.00;0.00;;;;;;;;;;5111142;28;20044;-82
2023/01/02 13:51:12;;;;;;;0.00;0.00;;;;;;;;;;5112665;28;20047;-82
2023/01/02 13:53:40;;;;;;;0.00;0.00;;;;;;;;;;5111068;28;20051;-82
2023/01/02 13:56:11;;;;;;;0.00;0.00;;;;;;;;;;5111694;28;20120;-83
2023/01/02 13:58:55;;;;;;;0.00;0.00;;;;;;;;;;5111305;28;20043;-82
2023/01/02 14:01:22;;;;;;;0.00;0.00;;;;;;;;;;5112668;28;20046;-82
2023/01/02 14:03:48;;;;;;;0.00;0.00;;;;;;;;;;5111293;28;20048;-82
2023/01/02 14:06:26;;;;;;;0.00;0.00;;;;;;;;;;5111542;28;20043;-83
2023/01/02 14:09:04;;;;;;;0.00;0.00;;;;;;;;;;5112465;28;20375;-82
2023/01/02 14:11:50;;;;;;;0.00;0.00;;;;;;;;;;5111200;28;20084;-83
2023/01/02 14:14:28;;;;;;;0.00;0.00;;;;;;;;;;5100306;28;20267;-82
2023/01/02 14:17:00;;;;;;;0.00;0.00;;;;;;;;;;5111530;28;20391;-83
2023/01/02 14:19:27;;;;;;;0.00;0.00;;;;;;;;;;5094766;28;20047;-82
2023/01/02 14:22:01;;;;;;;0.00;0.00;;;;;;;;;;5115167;28;20517;-83
2023/01/02 14:24:35;;;;;;;0.00;0.00;;;;;;;;;;5116217;28;20066;-82
2023/01/02 14:27:03;;;;;;;0.00;0.00;;;;;;;;;;5115337;28;20126;-83
2023/01/02 14:29:30;;;;;;;0.00;0.00;;;;;;;;;;5116123;28;20043;-82
2023/01/02 14:32:04;;;;;;;0.00;0.00;;;;;;;;;;5097846;28;20035;-82
2023/01/02 14:34:31;;;;;;;0.00;0.00;;;;;;;;;;5114387;28;20146;-82
2023/01/02 14:36:58;;;;;;;0.00;0.00;;;;;;;;;;5114955;28;20395;-83
2023/01/02 14:39:26;;;;;;;0.00;0.00;;;;;;;;;;5115899;28;20339;-84
2023/01/02 14:44:45;;;;;;;0.00;0.00;;;;;;;;;;5115625;28;20035;-83
2023/01/02 14:47:14;;;;;;;0.00;0.00;;;;;;;;;;5114748;28;20483;-82
2023/01/02 14:49:41;;;;;;;0.00;0.00;;;;;;;;;;5115685;28;20036;-82
2023/01/02 14:52:12;;;;;;;0.00;0.00;;;;;;;;;;5114389;28;20036;-83
2023/01/02 14:54:46;;;;;;;0.00;0.00;;;;;;;;;;5114108;28;20200;-83
2023/01/02 14:57:29;;;;;;;0.10;0.10;;;;;;;;;;5115702;28;20349;-83
2023/01/02 14:59:55;;;;;;;0.00;0.00;;;;;;;;;;5115296;28;20036;-82
2023/01/02 15:02:26;;;;;;;0.00;0.00;;;;;;;;;;5115450;28;20045;-82
2023/01/02 15:04:55;;;;;;;0.00;0.00;;;;;;;;;;5096822;28;20058;-83
2023/01/02 15:07:24;;;;;;;0.00;0.00;;;;;;;;;;5114248;28;20046;-83
2023/01/02 15:09:52;;;;;;;0.00;0.00;;;;;;;;;;5114027;28;20051;-83
2023/01/02 15:15:16;;;;;;;0.00;0.00;;;;;;;;;;5115177;28;20130;-83
2023/01/02 15:17:43;;;;;;;0.00;0.00;;;;;;;;;;5115251;28;20054;-84
2023/01/02 15:20:15;;;;;;;0.00;0.00;;;;;;;;;;5115035;28;20032;-83
2023/01/02 15:22:42;;;;;;;0.00;0.00;;;;;;;;;;5114063;28;20048;-83
2023/01/02 15:25:11;;;;;;;0.00;0.00;;;;;;;;;;5113631;28;20071;-83
2023/01/02 15:27:38;;;;;;;0.00;0.00;;;;;;;;;;5096757;28;20082;-83
2023/01/02 15:30:21;;;;;;;0.00;0.00;;;;;;;;;;5113700;28;20177;-83
2023/01/02 15:32:48;;;;;;;0.00;0.00;;;;;;;;;;5113936;28;20502;-82
2023/01/02 15:35:22;;;;;;;0.00;0.00;;;;;;;;;;5113204;28;20047;-83
2023/01/02 15:37:48;;;;;;;0.00;0.00;;;;;;;;;;5115091;28;20036;-82
2023/01/02 15:40:15;;;;;;;0.00;0.00;;;;;;;;;;5114749;28;20036;-82
2023/01/02 15:45:27;;;;;;;0.00;0.00;;;;;;;;;;5114395;28;20048;-83
2023/01/02 15:47:54;;;;;;;0.00;0.00;;;;;;;;;;5113251;28;20050;-82
2023/01/02 15:50:23;;;;;;;0.00;0.00;;;;;;;;;;5105910;27;20522;-82
2023/01/02 15:53:15;;;;;;;0.00;0.00;;;;;;;;;;5105316;28;20498;-82
2023/01/02 15:55:41;;;;;;;0.00;0.00;;;;;;;;;;5077567;27;20086;-86
2023/01/02 15:58:16;;;;;;;0.00;0.00;;;;;;;;;;5107436;28;20043;-81
2023/01/02 16:00:43;;;;;;;0.00;0.00;;;;;;;;;;5093154;28;20074;-82
2023/01/02 16:03:10;;;;;;;0.00;0.00;;;;;;;;;;5111766;27;20052;-82
2023/01/02 16:05:44;;;;;;;0.00;0.00;;;;;;;;;;5112534;28;20039;-82
2023/01/02 16:08:17;;;;;;;0.00;0.00;;;;;;;;;;5114188;28;20050;-82
2023/01/02 16:10:43;;;;;;;0.00;0.00;;;;;;;;;;5112639;28;20039;-82
2023/01/02 16:15:59;;;;;;;0.00;0.00;;;;;;;;;;5113870;28;20044;-82
2023/01/02 16:18:25;;;;;;;0.00;0.00;;;;;;;;;;5113148;28;20100;-83
2023/01/02 16:20:57;;;;;;;0.00;0.00;;;;;;;;;;5112608;28;20044;-82
2023/01/02 16:23:23;;;;;;;0.00;0.00;;;;;;;;;;5114188;28;20047;-82
2023/01/02 16:25:49;;;;;;;0.00;0.00;;;;;;;;;;5112415;28;20394;-82
2023/01/02 16:28:21;;;;;;;0.00;0.00;;;;;;;;;;5112612;28;20051;-82
2023/01/02 16:30:47;;;;;;;0.00;0.00;;;;;;;;;;5112374;28;20047;-82
2023/01/02 16:33:34;;;;;;;0.00;0.00;;;;;;;;;;5113493;28;20112;-82
2023/01/02 16:36:03;;;;;;;0.00;0.00;;;;;;;;;;5113713;28;20039;-82
2023/01/02 16:38:30;;;;;;;0.00;0.00;;;;;;;;;;5112542;28;20047;-82
2023/01/02 16:41:10;;;;;;;0.00;0.00;;;;;;;;;;5113516;28;20040;-82
2023/01/02 16:43:37;;;;;;;0.00;0.00;;;;;;;;;;5112060;28;20082;-82
2023/01/02 16:46:03;;;;;;;0.00;0.00;;;;;;;;;;5112096;28;20456;-82
2023/01/02 16:48:30;;;;;;;0.85;0.15;;;;;;;;;;5095236;28;20127;-82
2023/01/02 16:50:57;;;;;;;0.00;0.00;;;;;;;;;;5112069;28;20047;-81
2023/01/02 16:53:24;;;;;;;0.00;0.00;;;;;;;;;;5112320;28;20555;-81
2023/01/02 16:55:50;;;;;;;0.00;0.00;;;;;;;;;;5113497;28;20401;-82
2023/01/02 16:58:17;;;;;;;0.00;0.00;;;;;;;;;;5112531;28;20039;-81
2023/01/02 17:00:43;;;;;;;0.00;0.00;;;;;;;;;;5113474;28;20043;-81
2023/01/02 17:03:14;;;;;;;0.00;0.00;;;;;;;;;;5112417;28;20039;-81
2023/01/02 17:05:42;;;;;;;0.00;0.00;;;;;;;;;;5112031;28;20058;-82
2023/01/02 17:08:08;;;;;;;0.00;0.00;;;;;;;;;;5113147;28;20477;-82
2023/01/02 17:10:34;;;;;;;0.00;0.00;;;;;;;;;;5111602;28;20040;-82
2023/01/02 17:13:04;;;;;;;0.00;0.00;;;;;;;;;;5111913;28;20071;-83
2023/01/02 17:15:31;;;;;;;0.00;0.00;;;;;;;;;;5094577;28;20036;-82
2023/01/02 17:17:57;;;;;;;0.00;0.00;;;;;;;;;;5111957;28;20046;-83
2023/01/02 17:20:24;;;;;;;0.00;0.00;;;;;;;;;;5112019;28;20092;-82
2023/01/02 17:22:50;;;;;;;0.00;0.00;;;;;;;;;;5111499;28;20071;-83
2023/01/02 17:25:16;;;;;;;0.00;0.00;;;;;;;;;;5111521;28;20075;-83
2023/01/02 17:27:43;;;;;;;0.00;0.00;;;;;;;;;;5111363;28;20494;-82
2023/01/02 17:30:13;;;;;;;0.00;0.00;;;;;;;;;;5111532;28;20479;-82
2023/01/02 17:32:40;;;;;;;0.00;0.00;;;;;;;;;;5111336;28;20055;-82
2023/01/02 17:35:07;;;;;;;0.00;0.00;;;;;;;;;;5094488;28;20047;-82
2023/01/02 17:37:33;;;;;;;0.00;0.00;;;;;;;;;;5111501;28;20042;-82
2023/01/02 17:39:59;;;;;;;0.00;0.00;;;;;;;;;;5094405;28;20039;-82
2023/01/02 17:42:25;;;;;;;0.00;0.00;;;;;;;;;;5091187;28;20101;-82
2023/01/02 17:44:51;;;;;;;0.00;0.00;;;;;;;;;;5057957;28;20054;-82
2023/01/02 17:47:17;;;;;;;0.00;0.00;;;;;;;;;;5091069;28;20040;-82
2023/01/02 17:49:43;;;;;;;0.00;0.00;;;;;;;;;;5092388;28;20048;-82
2023/01/02 17:52:11;;;;;;;0.00;0.00;;;;;;;;;;5091000;28;20115;-82
2023/01/02 17:54:37;;;;;;;0.00;0.00;;;;;;;;;;5091895;28;20040;-83
2023/01/02 17:57:03;;;;;;;0.00;0.00;;;;;;;;;;5094904;28;20391;-82
2023/01/02 17:59:29;;;;;;;0.00;0.00;;;;;;;;;;5096634;28;20399;-82
2023/01/02 18:01:56;;;;;;;0.00;0.00;;;;;;;;;;5095175;28;20113;-82
2023/01/02 18:04:22;;;;;;;0.00;0.00;;;;;;;;;;5078310;28;20040;-82
2023/01/02 18:06:48;;;;;;;0.00;0.00;;;;;;;;;;5094833;28;20447;-82
2023/01/02 18:09:17;;;;;;;0.00;0.00;;;;;;;;;;5096431;28;20101;-82
2023/01/02 18:11:43;;;;;;;0.00;0.00;;;;;;;;;;5095543;28;20048;-84
2023/01/02 18:14:13;;;;;;;0.00;0.00;;;;;;;;;;5094631;28;20054;-82
2023/01/02 18:16:41;;;;;;;0.00;0.00;;;;;;;;;;5096033;28;20066;-82
2023/01/02 18:19:14;;;;;;;0.00;0.00;;;;;;;;;;5096153;28;20032;-81
2023/01/02 18:21:40;;;;;;;0.00;0.00;;;;;;;;;;5094592;28;20046;-82
2023/01/02 18:24:11;;;;;;;0.00;0.00;;;;;;;;;;5094818;28;20060;-82
2023/01/02 18:26:37;;;;;;;0.00;0.00;;;;;;;;;;5095975;28;20082;-81
2023/01/02 18:29:03;;;;;;;0.00;0.00;;;;;;;;;;5094426;28;20430;-82
2023/01/02 18:31:32;;;;;;;0.00;0.00;;;;;;;;;;5094114;28;20048;-82
2023/01/02 18:34:02;;;;;;;0.00;0.00;;;;;;;;;;5093954;28;20060;-82
2023/01/02 18:36:28;;;;;;;0.00;0.00;;;;;;;;;;5094134;28;20048;-82
2023/01/02 18:39:01;;;;;;;0.00;0.00;;;;;;;;;;5094580;28;20490;-82
2023/01/02 18:41:29;;;;;;;0.00;0.00;;;;;;;;;;5108395;28;20043;-82
2023/01/02 18:44:15;;;;;;;0.00;0.00;;;;;;;;;;5094313;28;20375;-82
2023/01/02 18:46:41;;;;;;;0.00;0.00;;;;;;;;;;5089766;28;20139;-82
2023/01/02 18:49:24;;;;;;;0.00;0.00;;;;;;;;;;5094504;28;20118;-82
2023/01/02 18:52:08;;;;;;;0.00;0.00;;;;;;;;;;5094066;28;20146;-83
2023/01/02 18:54:34;;;;;;;0.00;0.00;;;;;;;;;;5095298;28;20040;-82
2023/01/02 18:57:18;;;;;;;0.00;0.00;;;;;;;;;;5093998;28;20100;-86
2023/01/02 18:59:48;;;;;;;0.00;0.00;;;;;;;;;;5111456;28;20096;-82
2023/01/02 19:02:29;;;;;;;0.00;0.00;;;;;;;;;;5110630;28;20081;-82
2023/01/02 19:04:56;;;;;;;0.00;0.00;;;;;;;;;;5103743;28;20080;-82
2023/01/02 19:07:25;;;;;;;0.00;0.00;;;;;;;;;;5113888;28;20088;-82
2023/01/02 19:09:55;;;;;;;0.00;0.00;;;;;;;;;;5114208;28;20107;-82
2023/01/02 19:15:29;;;;;;;0.00;0.00;;;;;;;;;;5095007;28;20036;-82
2023/01/02 19:17:57;;;;;;;0.00;0.00;;;;;;;;;;5093434;28;20100;-82
2023/01/02 19:20:24;;;;;;;0.00;0.00;;;;;;;;;;5093722;28;20047;-82
2023/01/02 19:22:50;;;;;;;0.00;0.00;;;;;;;;;;5093315;28;20039;-82
2023/01/02 19:25:18;;;;;;;0.00;0.00;;;;;;;;;;5093746;28;20043;-82
2023/01/02 19:27:44;;;;;;;0.00;0.00;;;;;;;;;;5095226;28;20063;-82
2023/01/02 19:30:29;;;;;;;0.00;0.00;;;;;;;;;;5115259;28;20069;-82
2023/01/02 19:32:56;;;;;;;0.00;0.00;;;;;;;;;;5113313;28;20066;-82
2023/01/02 19:35:25;;;;;;;0.00;0.00;;;;;;;;;;5113590;28;20040;-82
2023/01/02 19:37:51;;;;;;;0.00;0.00;;;;;;;;;;5113315;28;20036;-82
2023/01/02 19:40:19;;;;;;;0.00;0.00;;;;;;;;;;5114982;28;20035;-82
2023/01/02 19:42:45;;;;;;;0.00;0.00;;;;;;;;;;5113149;28;20047;-82
2023/01/02 19:45:22;;;;;;;0.00;0.00;;;;;;;;;;5113193;28;20065;-82
2023/01/02 19:47:49;;;;;;;0.00;0.00;;;;;;;;;;5113495;28;20082;-82
2023/01/02 19:50:17;;;;;;;0.00;0.00;;;;;;;;;;5113502;28;20142;-82
2023/01/02 19:52:43;;;;;;;0.00;0.00;;;;;;;;;;5113034;28;20506;-82
2023/01/02 19:55:10;;;;;;;0.00;0.00;;;;;;;;;;5113118;28;20096;-82
2023/01/02 19:57:36;;;;;;;0.00;0.00;;;;;;;;;;5114161;28;20408;-82
2023/01/02 20:00:03;;;;;;;0.00;0.00;;;;;;;;;;5114414;28;20475;-82
2023/01/02 20:02:29;;;;;;;0.00;0.00;;;;;;;;;;5113042;28;20122;-82
2023/01/02 20:04:55;;;;;;;0.00;0.00;;;;;;;;;;5112686;28;20135;-82
2023/01/02 20:07:22;;;;;;;0.00;0.00;;;;;;;;;;5112891;28;20055;-83
2023/01/02 20:09:49;;;;;;;0.00;0.00;;;;;;;;;;5113101;28;20047;-82
2023/01/02 20:12:32;;;;;;;0.00;0.00;;;;;;;;;;5114279;28;20042;-82
2023/01/02 20:14:59;;;;;;;0.00;0.00;;;;;;;;;;5096328;28;20120;-83
2023/01/02 20:17:27;;;;;;;0.00;0.00;;;;;;;;;;5111718;28;20112;-82
2023/01/02 20:19:53;;;;;;;0.00;0.00;;;;;;;;;;5112739;28;20040;-82
2023/01/02 20:22:19;;;;;;;0.00;0.00;;;;;;;;;;5112695;28;20139;-83
2023/01/02 20:24:47;;;;;;;0.00;0.00;;;;;;;;;;5113628;28;20509;-83
2023/01/02 20:27:14;;;;;;;0.00;0.00;;;;;;;;;;5112442;28;20047;-82
2023/01/02 20:29:40;;;;;;;0.00;0.00;;;;;;;;;;5112378;28;20093;-81
2023/01/02 20:32:06;;;;;;;0.00;0.00;;;;;;;;;;5112662;28;20039;-82
2023/01/02 20:34:32;;;;;;;0.00;0.00;;;;;;;;;;5111940;28;20479;-82
2023/01/02 20:36:58;;;;;;;0.00;0.00;;;;;;;;;;5113756;28;20118;-82
2023/01/02 20:39:24;;;;;;;0.00;0.00;;;;;;;;;;5112014;28;20031;-82
2023/01/02 20:41:50;;;;;;;0.00;0.00;;;;;;;;;;5112536;28;20046;-82
2023/01/02 20:44:16;;;;;;;0.00;0.00;;;;;;;;;;5113396;28;20039;-82
2023/01/02 20:46:42;;;;;;;0.00;0.00;;;;;;;;;;5112193;28;20032;-82
2023/01/02 20:49:08;;;;;;;0.00;0.00;;;;;;;;;;5113208;28;20041;-84
2023/01/02 20:51:34;;;;;;;0.00;0.00;;;;;;;;;;5112127;28;20036;-81
2023/01/02 20:54:01;;;;;;;0.00;0.00;;;;;;;;;;5113021;28;20047;-81
2023/01/02 20:56:27;;;;;;;0.00;0.00;;;;;;;;;;5112162;28;20485;-82
2023/01/02 20:58:54;;;;;;;0.00;0.00;;;;;;;;;;5112089;28;20043;-81
2023/01/02 21:01:20;;;;;;;0.00;0.00;;;;;;;;;;5112165;28;20155;-82
2023/01/02 21:03:46;;;;;;;0.00;0.00;;;;;;;;;;5112938;28;20050;-83
2023/01/02 21:06:12;;;;;;;0.00;0.00;;;;;;;;;;5112248;28;20498;-81
2023/01/02 21:08:39;;;;;;;0.00;0.00;;;;;;;;;;5111757;28;20450;-82
2023/01/02 21:11:05;;;;;;;0.00;0.00;;;;;;;;;;5111957;28;20582;-82
2023/01/02 21:13:31;;;;;;;0.00;0.00;;;;;;;;;;5111524;28;20092;-82
2023/01/02 21:15:57;;;;;;;0.00;0.00;;;;;;;;;;5111792;28;20035;-82
2023/01/02 21:18:41;;;;;;;0.00;0.00;;;;;;;;;;5111432;28;20474;-82
2023/01/02 21:21:09;;;;;;;0.00;0.00;;;;;;;;;;5111579;28;20108;-81
2023/01/02 21:23:36;;;;;;;0.00;0.00;;;;;;;;;;5111385;28;20065;-81
2023/01/02 21:26:02;;;;;;;0.00;0.00;;;;;;;;;;5111594;28;20099;-81
2023/01/02 21:28:28;;;;;;;0.00;0.00;;;;;;;;;;5111631;28;20075;-81
2023/01/02 21:30:54;;;;;;;0.00;0.00;;;;;;;;;;5112847;28;20040;-81
2023/01/02 21:33:21;;;;;;;0.00;0.00;;;;;;;;;;5110812;28;20127;-81
2023/01/02 21:35:48;;;;;;;0.00;0.00;;;;;;;;;;5111273;28;20356;-81
2023/01/02 21:38:15;;;;;;;0.00;0.00;;;;;;;;;;5111470;28;20044;-81
2023/01/02 21:40:41;;;;;;;0.00;0.00;;;;;;;;;;5112798;28;20032;-81
2023/01/02 21:43:07;;;;;;;0.00;0.00;;;;;;;;;;5112710;28;20039;-81
2023/01/02 21:45:33;;;;;;;0.00;0.00;;;;;;;;;;5112387;28;20082;-81
2023/01/02 21:47:59;;;;;;;0.00;0.00;;;;;;;;;;5111336;28;20489;-82
2023/01/02 21:50:25;;;;;;;0.00;0.00;;;;;;;;;;5111165;28;20039;-81
2023/01/02 21:52:52;;;;;;;0.00;0.00;;;;;;;;;;5111239;28;20075;-81
2023/01/02 21:55:19;;;;;;;0.00;0.00;;;;;;;;;;5094147;28;20035;-81
2023/01/02 21:57:45;;;;;;;0.00;0.00;;;;;;;;;;5111703;28;20047;-81
2023/01/02 22:00:16;;;;;;;0.00;0.00;;;;;;;;;;5111059;28;20035;-82
2023/01/02 22:02:42;;;;;;;0.00;0.00;;;;;;;;;;5111165;28;20051;-81
2023/01/02 22:05:09;;;;;;;0.00;0.00;;;;;;;;;;5112291;28;20067;-82
2023/01/02 22:07:35;;;;;;;0.00;0.00;;;;;;;;;;5112376;28;20439;-81
2023/01/02 22:10:01;;;;;;;0.00;0.00;;;;;;;;;;5094140;28;20075;-81
2023/01/02 22:12:28;;;;;;;0.00;0.00;;;;;;;;;;5094555;28;20036;-82
2023/01/02 22:14:54;;;;;;;0.00;0.00;;;;;;;;;;5110996;28;20052;-81
2023/01/02 22:17:21;;;;;;;0.00;0.00;;;;;;;;;;5110921;28;20039;-81
2023/01/02 22:19:47;;;;;;;0.00;0.00;;;;;;;;;;5112107;28;20108;-82
2023/01/02 22:22:13;;;;;;;0.00;0.00;;;;;;;;;;5112473;28;20040;-83
2023/01/02 22:24:39;;;;;;;0.00;0.00;;;;;;;;;;5110934;28;20493;-80
2023/01/02 22:27:06;;;;;;;0.00;0.00;;;;;;;;;;5111318;28;20044;-81
2023/01/02 22:29:33;;;;;;;0.00;0.00;;;;;;;;;;5111106;28;20401;-81
2023/01/02 22:32:02;;;;;;;0.00;0.00;;;;;;;;;;5112211;28;20071;-81
2023/01/02 22:34:28;;;;;;;0.00;0.00;;;;;;;;;;5111810;28;20517;-81
2023/01/02 22:36:54;;;;;;;0.00;0.00;;;;;;;;;;5112410;28;20245;-81
2023/01/02 22:39:20;;;;;;;0.00;0.00;;;;;;;;;;5111018;28;20454;-81
2023/01/02 22:41:48;;;;;;;0.00;0.00;;;;;;;;;;5113780;28;20123;-81
2023/01/02 22:44:19;;;;;;;0.00;0.00;;;;;;;;;;5114590;28;20051;-80
2023/01/02 22:46:48;;;;;;;0.00;0.00;;;;;;;;;;5114839;28;20043;-81
2023/01/02 22:49:15;;;;;;;0.00;0.00;;;;;;;;;;5115803;28;20035;-81
2023/01/02 22:51:41;;;;;;;0.00;0.00;;;;;;;;;;5114598;28;20078;-81
2023/01/02 22:54:14;;;;;;;0.00;0.00;;;;;;;;;;5114267;28;20044;-81
2023/01/02 22:56:40;;;;;;;0.00;0.00;;;;;;;;;;5116162;28;20058;-81
2023/01/02 22:59:06;;;;;;;0.00;0.00;;;;;;;;;;5114642;28;20063;-82
2023/01/02 23:01:34;;;;;;;0.00;0.00;;;;;;;;;;5114815;28;20066;-81
2023/01/02 23:04:00;;;;;;;0.00;0.00;;;;;;;;;;5114305;28;20039;-81
2023/01/02 23:06:26;;;;;;;0.00;0.00;;;;;;;;;;5114242;28;20036;-81
2023/01/02 23:08:52;;;;;;;0.00;0.00;;;;;;;;;;5114296;28;20127;-81
2023/01/02 23:11:19;;;;;;;0.00;0.00;;;;;;;;;;5115295;28;20050;-81
2023/01/02 23:13:45;;;;;;;0.20;0.00;;;;;;;;;;5114061;28;20032;-81
2023/01/02 23:19:15;;;;;;;0.00;0.00;;;;;;;;;;5115359;28;20036;-81
2023/01/02 23:21:45;;;;;;;0.00;0.00;;;;;;;;;;5114173;28;20051;-81
2023/01/02 23:24:13;;;;;;;0.00;0.00;;;;;;;;;;5113730;28;20135;-81
2023/01/02 23:26:43;;;;;;;0.00;0.00;;;;;;;;;;5114063;28;20402;-81
2023/01/02 23:29:10;;;;;;;0.00;0.00;;;;;;;;;;5115265;28;20040;-81
2023/01/02 23:31:37;;;;;;;0.00;0.00;;;;;;;;;;5113442;28;20399;-81
2023/01/02 23:34:03;;;;;;;0.00;0.00;;;;;;;;;;5113369;28;20059;-81
2023/01/02 23:36:29;;;;;;;0.00;0.00;;;;;;;;;;5096321;28;20588;-81
2023/01/02 23:38:55;;;;;;;0.00;0.00;;;;;;;;;;5113641;28;20067;-82
2023/01/02 23:41:21;;;;;;;0.00;0.00;;;;;;;;;;5100888;28;20123;-81
2023/01/02 23:43:47;;;;;;;0.00;0.00;;;;;;;;;;5093096;28;20491;-80
2023/01/02 23:46:13;;;;;;;0.00;0.00;;;;;;;;;;5092790;28;20097;-81
2023/01/02 23:48:39;;;;;;;0.00;0.00;;;;;;;;;;5076444;28;20123;-81
2023/01/02 23:51:05;;;;;;;0.00;0.00;;;;;;;;;;5092621;28;20471;-81
2023/01/02 23:53:31;;;;;;;0.00;0.00;;;;;;;;;;5094312;28;20044;-81
2023/01/02 23:55:57;;;;;;;0.00;0.00;;;;;;;;;;5092766;28;20050;-81
2023/01/02 23:58:24;;;;;;;0.00;0.00;;;;;;;;;;5093314;28;20043;-81
